Alconbury RAF, United Kingdom

1:04 AM BST on May 23, 2015 (GMT +0100)
Huntingdon | | Change Station
CLOSE
Current Station
Personal Weather Station
Location: Huntingdon,
Elevation: 79 ft
Nearby Weather Stations

Elev 79 ft 52.34 °N, 0.17 °W | Updated 2 seconds ago

Mostly Cloudy
Mostly Cloudy
58.7 °F
Feels Like 58.7 °F
N
2.3
Wind Variable Wind from NNE
Gusts 2.3 mph

Today
High -- | Low -- °F
--% Chance of Precip.
Yesterday
High -- | Low -- °F
Precip. -- in
4:54 AM 9:01 PM
Waxing Crescent, 25% visible
Pressure 30.24 in
Visibility 6.2 miles
Clouds Few 2100 ft
Mostly Cloudy 7000 ft
Dew Point 54 °F
Humidity 86%
Rainfall 0.00 in
Snow Depth Not available.
UV 0 out of 12
Pollen Not available.
Air Quality Not available.
Flu Activity Not available.
METAR EGXT 222250Z AUTO 31007KT 9999 FEW021/// BKN070/// 14/12 Q1024

More Conditions Fewer Conditions

Pressure 30.24 in
Visibility 6.2 miles
Clouds Few 2100 ft
Mostly Cloudy 7000 ft
Dew Point 54 °F
Humidity 86%
Rainfall 0.00 in
Snow Depth Not available.
UV 0 out of 12
Pollen Not available.
Air Quality Not available.
Flu Activity Not available.
METAR EGXT 222250Z AUTO 31007KT 9999 FEW021/// BKN070/// 14/12 Q1024

More Conditions Fewer Conditions

10-Day Weather Forecast

Almanac

Astronomy

May. 23, 2015 Rise Set
Actual Time
Civil Twilight
Nautical Twilight
Astronomical Twilight
Moon
Length of Visible Light
Length of Day
Tomorrow will be .
, % of the Moon is Illuminated

Today's Extremes

Country Highs Country Lows

Community

WunderPhotos

Upload Photos

1,823,339 photos uploaded!

WunderBlogs® & News

Nearby

Air Quality

  Air Quality AQ Index Pollutant
Not available.

Snow Depth

Station Depth Elevation

Earthquake Activity

City Distance Mag. Time & Date
Minimum magnitude displayed is 2.5.

Coastal Water Temperatures

Place Temperature

Stations

Nearby Weather Stations

Station Location Temp. Windchill Dew Point Humidity Wind Precip. Elev Updated Type